Time;durP1;ratioP1;P1;durP2;ratioP2;P2;SDS_P1;SDS_P2;PMS_P1;PMS_P2;Temp;Humidity;BMP_temperature;BMP_pressure;BME280_temperature;BME280_humidity;BME280_pressure;Samples;Min_cycle;Max_cycle;Signal;HPM_P1;HPM_P2
2023/06/01 00:00:31;;;;;;;25.23;11.93;;;;;;;;;;6309778;28;20036;-47
2023/06/01 00:03:51;;;;;;;25.48;11.70;;;;;;;;;;6306558;28;20051;-47
2023/06/01 00:06:52;;;;;;;26.52;11.73;;;;;;;;;;6304175;28;20130;-50
2023/06/01 00:09:52;;;;;;;26.98;12.38;;;;;;;;;;6293151;28;20048;-52
2023/06/01 00:12:53;;;;;;;26.83;11.98;;;;;;;;;;6302287;28;20049;-47
2023/06/01 00:15:54;;;;;;;28.67;13.27;;;;;;;;;;6297441;28;20044;-49
2023/06/01 00:18:56;;;;;;;25.88;11.57;;;;;;;;;;6299801;28;20052;-48
2023/06/01 00:21:57;;;;;;;;;;;;;;;;;;6295780;28;20056;-49
2023/06/01 00:24:57;;;;;;;29.05;12.48;;;;;;;;;;6297563;28;20003;-50
2023/06/01 00:27:58;;;;;;;28.25;12.23;;;;;;;;;;6296470;28;20050;-48
2023/06/01 00:30:58;;;;;;;29.75;12.07;;;;;;;;;;6297007;28;20111;-48
2023/06/01 00:33:59;;;;;;;31.45;11.68;;;;;;;;;;6296462;28;20041;-50
2023/06/01 00:36:59;;;;;;;30.58;11.98;;;;;;;;;;6296377;28;20079;-49
2023/06/01 00:40:00;;;;;;;24.90;11.63;;;;;;;;;;6294497;28;20045;-46
2023/06/01 00:43:01;;;;;;;34.10;12.80;;;;;;;;;;6297990;28;20049;-52
2023/06/01 00:46:01;;;;;;;29.30;13.43;;;;;;;;;;6311529;28;20513;-51
2023/06/01 00:49:02;;;;;;;31.52;13.55;;;;;;;;;;6308865;28;20052;-47
2023/06/01 00:52:03;;;;;;;31.45;13.70;;;;;;;;;;6309694;28;20051;-51
2023/06/01 00:55:05;;;;;;;30.23;13.00;;;;;;;;;;6308545;28;20048;-47
2023/06/01 00:58:06;;;;;;;33.28;12.80;;;;;;;;;;6309230;28;20123;-51
2023/06/01 01:01:07;;;;;;;31.90;13.00;;;;;;;;;;6307839;28;20109;-48
2023/06/01 01:04:09;;;;;;;32.95;13.95;;;;;;;;;;6319383;28;20605;-48
2023/06/01 01:07:26;;;;;;;33.85;14.38;;;;;;;;;;6309237;28;20052;-50
2023/06/01 01:10:36;;;;;;;30.85;13.93;;;;;;;;;;6307614;28;20097;-48
2023/06/01 01:14:01;;;;;;;34.40;13.93;;;;;;;;;;6306098;28;20048;-47
2023/06/01 01:17:10;;;;;;;30.85;13.52;;;;;;;;;;6307728;28;20147;-50
2023/06/01 01:20:26;;;;;;;35.38;13.98;;;;;;;;;;6290541;28;20036;-48
2023/06/01 01:23:30;;;;;;;33.78;13.95;;;;;;;;;;6308474;28;20043;-48
2023/06/01 01:26:53;;;;;;;35.33;14.05;;;;;;;;;;6312202;28;20134;-48
2023/06/01 01:29:55;;;;;;;33.60;14.25;;;;;;;;;;6307756;28;20051;-47
2023/06/01 01:32:58;;;;;;;35.17;14.60;;;;;;;;;;6304080;28;20050;-49
2023/06/01 01:36:00;;;;;;;40.78;14.88;;;;;;;;;;6306487;28;20090;-47
2023/06/01 01:39:02;;;;;;;42.28;16.50;;;;;;;;;;6305178;28;20190;-51
2023/06/01 01:42:02;;;;;;;38.20;15.70;;;;;;;;;;6308570;28;20510;-47
2023/06/01 01:45:03;;;;;;;39.03;15.60;;;;;;;;;;6288395;28;20052;-46
2023/06/01 01:48:22;;;;;;;34.00;14.77;;;;;;;;;;6307496;28;20427;-49
2023/06/01 01:51:40;;;;;;;35.08;15.43;;;;;;;;;;6298352;28;20140;-48
2023/06/01 01:54:46;;;;;;;38.20;15.45;;;;;;;;;;6306360;28;20058;-48
2023/06/01 01:57:48;;;;;;;40.83;15.07;;;;;;;;;;6303667;28;20561;-47
2023/06/01 02:00:49;;;;;;;34.33;14.88;;;;;;;;;;6304991;28;20047;-48
2023/06/01 02:04:01;;;;;;;41.75;15.60;;;;;;;;;;6305702;28;20040;-47
2023/06/01 02:07:01;;;;;;;38.40;14.75;;;;;;;;;;6303776;28;20138;-47
2023/06/01 02:10:02;;;;;;;41.72;14.85;;;;;;;;;;6304644;28;20079;-49
2023/06/01 02:13:04;;;;;;;40.00;16.50;;;;;;;;;;6305897;28;20056;-49
2023/06/01 02:16:05;;;;;;;42.83;15.27;;;;;;;;;;6307755;28;20142;-47
2023/06/01 02:19:05;;;;;;;36.22;15.18;;;;;;;;;;6303338;28;20043;-47
2023/06/01 02:22:06;;;;;;;43.10;15.98;;;;;;;;;;6305309;28;20075;-48
2023/06/01 02:25:07;;;;;;;41.92;16.63;;;;;;;;;;6307096;28;20117;-48
2023/06/01 02:28:10;;;;;;;39.73;17.23;;;;;;;;;;6306196;28;20403;-50
2023/06/01 02:31:13;;;;;;;37.80;17.05;;;;;;;;;;6303407;28;20046;-49
2023/06/01 02:34:15;;;;;;;40.13;15.88;;;;;;;;;;6307960;28;20102;-48
2023/06/01 02:37:15;;;;;;;44.72;16.42;;;;;;;;;;6305785;28;20089;-47
2023/06/01 02:40:16;;;;;;;50.95;17.10;;;;;;;;;;6311490;28;20065;-49
2023/06/01 02:43:17;;;;;;;36.13;16.45;;;;;;;;;;6311987;28;20044;-47
2023/06/01 02:46:18;;;;;;;40.10;16.55;;;;;;;;;;6305806;28;20036;-47
2023/06/01 02:49:19;;;;;;;45.22;17.30;;;;;;;;;;6306047;28;20059;-51
2023/06/01 02:52:20;;;;;;;43.72;17.10;;;;;;;;;;6303705;28;20501;-48
2023/06/01 02:55:21;;;;;;;44.65;17.85;;;;;;;;;;6305667;28;20040;-47
2023/06/01 02:58:21;;;;;;;43.92;19.20;;;;;;;;;;6304441;28;20535;-49
2023/06/01 03:01:22;;;;;;;42.78;17.50;;;;;;;;;;6306433;28;20430;-48
2023/06/01 03:04:22;;;;;;;51.53;19.25;;;;;;;;;;6304667;28;20063;-48
2023/06/01 03:07:23;;;;;;;44.50;19.40;;;;;;;;;;6304274;28;20051;-46
2023/06/01 03:10:24;;;;;;;44.05;19.27;;;;;;;;;;6303889;28;20095;-47
2023/06/01 03:13:24;;;;;;;42.53;18.20;;;;;;;;;;6306042;28;20039;-47
2023/06/01 03:16:25;;;;;;;42.00;17.83;;;;;;;;;;6305391;28;20067;-49
2023/06/01 03:19:26;;;;;;;41.78;18.70;;;;;;;;;;6310590;28;20089;-48
2023/06/01 03:22:26;;;;;;;42.22;17.75;;;;;;;;;;6306564;28;20048;-50
2023/06/01 03:25:27;;;;;;;46.22;17.58;;;;;;;;;;6308159;28;20040;-47
2023/06/01 03:28:28;;;;;;;43.67;19.47;;;;;;;;;;6305067;28;20037;-49
2023/06/01 03:31:30;;;;;;;47.63;19.00;;;;;;;;;;6303469;28;20292;-49
2023/06/01 03:34:32;;;;;;;48.03;20.50;;;;;;;;;;6304172;28;20138;-48
2023/06/01 03:37:34;;;;;;;48.55;20.08;;;;;;;;;;6309447;28;20060;-48
2023/06/01 03:40:35;;;;;;;52.35;19.13;;;;;;;;;;6309761;28;20429;-48
2023/06/01 03:43:36;;;;;;;52.55;20.35;;;;;;;;;;6304879;28;20047;-46
2023/06/01 03:46:37;;;;;;;56.08;23.15;;;;;;;;;;6306116;28;20048;-48
2023/06/01 03:49:37;;;;;;;56.45;23.67;;;;;;;;;;6303950;28;20426;-49
2023/06/01 03:52:38;;;;;;;56.58;23.05;;;;;;;;;;6308923;28;20064;-47
2023/06/01 03:55:39;;;;;;;59.38;24.70;;;;;;;;;;6311794;28;20444;-46
2023/06/01 03:58:40;;;;;;;72.90;27.23;;;;;;;;;;6302976;28;20582;-48
2023/06/01 04:01:42;;;;;;;58.38;26.52;;;;;;;;;;6301864;28;20421;-50
2023/06/01 04:04:45;;;;;;;68.18;28.63;;;;;;;;;;6302767;28;20043;-46
2023/06/01 04:07:47;;;;;;;65.00;28.02;;;;;;;;;;6302337;28;20044;-48
2023/06/01 04:10:48;;;;;;;60.10;26.42;;;;;;;;;;6304324;28;20048;-48
2023/06/01 04:13:49;;;;;;;72.38;28.50;;;;;;;;;;6306224;28;20097;-48
2023/06/01 04:16:50;;;;;;;59.58;25.85;;;;;;;;;;6310794;28;20048;-49
2023/06/01 04:19:50;;;;;;;68.88;29.40;;;;;;;;;;6290810;28;20523;-48
2023/06/01 04:22:51;;;;;;;71.47;29.45;;;;;;;;;;6308272;28;20048;-48
2023/06/01 04:25:52;;;;;;;64.03;29.70;;;;;;;;;;6307820;28;20532;-46
2023/06/01 04:28:56;;;;;;;71.70;29.38;;;;;;;;;;6307185;28;20100;-52
2023/06/01 04:31:57;;;;;;;78.90;32.20;;;;;;;;;;6311349;28;20048;-49
2023/06/01 04:34:59;;;;;;;84.45;32.25;;;;;;;;;;6308974;28;20082;-47
2023/06/01 04:38:00;;;;;;;79.40;33.53;;;;;;;;;;6298439;28;20525;-49
2023/06/01 04:41:01;;;;;;;78.03;34.10;;;;;;;;;;6306496;28;20517;-48
2023/06/01 04:44:05;;;;;;;86.45;35.63;;;;;;;;;;6309272;28;20534;-49
2023/06/01 04:47:06;;;;;;;78.07;32.58;;;;;;;;;;6307145;28;20080;-48
2023/06/01 04:50:09;;;;;;;69.38;31.33;;;;;;;;;;6307012;28;20040;-49
2023/06/01 04:53:10;;;;;;;68.35;31.23;;;;;;;;;;6308073;28;20044;-50
2023/06/01 04:56:11;;;;;;;70.80;30.00;;;;;;;;;;6310449;28;20137;-53
2023/06/01 04:59:12;;;;;;;65.97;30.00;;;;;;;;;;6306935;28;20513;-48
2023/06/01 05:02:13;;;;;;;67.73;29.57;;;;;;;;;;6307367;28;20458;-49
2023/06/01 05:05:15;;;;;;;69.10;29.40;;;;;;;;;;6308744;28;20406;-52
2023/06/01 05:08:15;;;;;;;66.82;29.23;;;;;;;;;;6307829;28;20047;-55
2023/06/01 05:11:16;;;;;;;61.10;26.67;;;;;;;;;;6307326;28;20071;-52
2023/06/01 05:14:16;;;;;;;54.28;25.83;;;;;;;;;;6310760;28;20471;-47
2023/06/01 05:17:17;;;;;;;49.83;24.15;;;;;;;;;;6314763;28;20422;-48
2023/06/01 05:20:18;;;;;;;53.25;24.13;;;;;;;;;;6308022;28;20055;-50
2023/06/01 05:23:18;;;;;;;51.28;24.15;;;;;;;;;;6308206;28;20036;-49
2023/06/01 05:26:19;;;;;;;51.42;22.15;;;;;;;;;;6312501;28;20058;-49
2023/06/01 05:29:19;;;;;;;52.03;23.73;;;;;;;;;;6305782;28;20045;-51
2023/06/01 05:32:20;;;;;;;42.65;21.33;;;;;;;;;;6306240;28;20375;-55
2023/06/01 05:35:21;;;;;;;45.15;23.30;;;;;;;;;;6311163;28;20666;-50
2023/06/01 05:38:21;;;;;;;40.33;21.92;;;;;;;;;;6306840;28;20052;-48
2023/06/01 05:41:22;;;;;;;46.80;21.02;;;;;;;;;;6303616;28;20287;-50
2023/06/01 05:44:23;;;;;;;47.20;21.42;;;;;;;;;;6306848;28;20040;-48
2023/06/01 05:47:23;;;;;;;45.70;20.13;;;;;;;;;;6304981;28;20028;-47
2023/06/01 05:50:25;;;;;;;43.90;20.05;;;;;;;;;;6306366;28;20354;-51
2023/06/01 05:53:27;;;;;;;41.95;19.58;;;;;;;;;;6309291;28;20139;-48
2023/06/01 05:56:27;;;;;;;;;;;;;;;;;;6306756;28;20471;-48
2023/06/01 05:59:28;;;;;;;35.95;16.15;;;;;;;;;;6311667;28;19920;-47
2023/06/01 06:02:28;;;;;;;35.92;17.67;;;;;;;;;;6306505;28;20044;-53
2023/06/01 06:05:29;;;;;;;32.65;16.70;;;;;;;;;;6307512;28;20090;-54
2023/06/01 06:08:30;;;;;;;31.38;15.98;;;;;;;;;;6308600;28;20051;-58
2023/06/01 06:11:31;;;;;;;28.40;15.60;;;;;;;;;;6305656;28;20040;-50
2023/06/01 06:14:31;;;;;;;32.10;14.77;;;;;;;;;;6305592;28;20093;-48
2023/06/01 06:17:32;;;;;;;31.17;14.60;;;;;;;;;;6306204;28;20082;-48
2023/06/01 06:20:33;;;;;;;31.17;14.70;;;;;;;;;;6303642;28;20498;-49
2023/06/01 06:23:34;;;;;;;33.13;13.10;;;;;;;;;;6306672;28;20040;-50
2023/06/01 06:26:35;;;;;;;25.73;12.60;;;;;;;;;;6307668;28;20048;-48
2023/06/01 06:29:36;;;;;;;27.00;13.05;;;;;;;;;;6302994;28;20244;-50
2023/06/01 06:32:36;;;;;;;20.38;12.70;;;;;;;;;;6303557;28;20501;-49
2023/06/01 06:35:38;;;;;;;27.40;11.20;;;;;;;;;;6305960;28;20048;-52
2023/06/01 06:38:39;;;;;;;;;;;;;;;;;;6306152;28;20493;-50
2023/06/01 06:41:41;;;;;;;23.50;11.18;;;;;;;;;;6302964;28;19920;-52
2023/06/01 06:44:41;;;;;;;17.13;10.48;;;;;;;;;;6306453;28;20177;-50
2023/06/01 06:47:45;;;;;;;19.53;11.17;;;;;;;;;;6305893;28;20121;-54
2023/06/01 06:50:45;;;;;;;18.50;10.73;;;;;;;;;;6306831;28;20072;-47
2023/06/01 06:53:46;;;;;;;20.17;10.40;;;;;;;;;;6304887;28;20063;-48
2023/06/01 06:56:47;;;;;;;19.97;10.60;;;;;;;;;;6304953;28;20309;-51
2023/06/01 06:59:47;;;;;;;19.23;9.77;;;;;;;;;;6306148;28;20406;-51
2023/06/01 07:02:48;;;;;;;18.93;9.63;;;;;;;;;;6305942;28;20046;-53
2023/06/01 07:05:49;;;;;;;17.83;9.50;;;;;;;;;;6310218;28;20134;-50
2023/06/01 07:08:50;;;;;;;18.17;9.23;;;;;;;;;;6307537;28;20467;-48
2023/06/01 07:11:51;;;;;;;20.40;9.38;;;;;;;;;;6305878;28;20040;-53
2023/06/01 07:14:51;;;;;;;17.50;9.63;;;;;;;;;;6304428;28;20044;-52
2023/06/01 07:17:52;;;;;;;17.17;9.40;;;;;;;;;;6305272;28;20051;-50
2023/06/01 07:20:53;;;;;;;19.97;9.67;;;;;;;;;;6306735;28;20059;-48
2023/06/01 07:23:54;;;;;;;16.93;8.80;;;;;;;;;;6305457;28;20051;-49
2023/06/01 07:26:55;;;;;;;17.10;8.03;;;;;;;;;;6304670;28;20048;-47
2023/06/01 07:29:56;;;;;;;18.30;8.15;;;;;;;;;;6303543;28;20066;-49
2023/06/01 07:32:56;;;;;;;17.13;8.27;;;;;;;;;;6309232;28;20048;-49
2023/06/01 07:35:58;;;;;;;15.23;7.77;;;;;;;;;;6307558;28;20066;-47
2023/06/01 07:38:58;;;;;;;16.10;7.90;;;;;;;;;;6304690;28;20052;-55
2023/06/01 07:41:59;;;;;;;12.80;6.03;;;;;;;;;;6305211;28;20074;-49
2023/06/01 07:45:00;;;;;;;10.90;6.00;;;;;;;;;;6303801;28;20040;-51
2023/06/01 07:48:00;;;;;;;15.33;6.33;;;;;;;;;;6306654;28;20073;-51
2023/06/01 07:51:02;;;;;;;16.20;5.73;;;;;;;;;;6311426;28;20097;-51
2023/06/01 07:54:03;;;;;;;14.82;5.65;;;;;;;;;;6310033;28;20043;-49
2023/06/01 07:57:05;;;;;;;11.73;6.17;;;;;;;;;;6314422;28;20036;-58
2023/06/01 08:00:09;;;;;;;12.05;5.75;;;;;;;;;;6308490;28;20512;-49
2023/06/01 08:03:10;;;;;;;10.25;5.47;;;;;;;;;;6308764;28;20040;-49
2023/06/01 08:06:11;;;;;;;11.82;5.45;;;;;;;;;;6309192;28;20072;-48
2023/06/01 08:09:12;;;;;;;12.63;5.63;;;;;;;;;;6309714;28;20511;-49
2023/06/01 08:12:14;;;;;;;12.83;5.63;;;;;;;;;;6306449;28;20720;-48
2023/06/01 08:15:15;;;;;;;15.43;6.13;;;;;;;;;;6307875;28;20051;-49
2023/06/01 08:18:16;;;;;;;13.85;6.10;;;;;;;;;;6307845;28;20048;-48
2023/06/01 08:21:17;;;;;;;11.53;5.50;;;;;;;;;;6306493;28;20125;-47
2023/06/01 08:24:22;;;;;;;13.27;5.85;;;;;;;;;;6313928;28;20147;-50
2023/06/01 08:27:23;;;;;;;15.07;6.57;;;;;;;;;;6312977;28;20410;-48
2023/06/01 08:30:27;;;;;;;13.77;6.03;;;;;;;;;;6313813;28;20043;-49
2023/06/01 08:33:29;;;;;;;12.57;6.47;;;;;;;;;;6310463;28;20449;-47
2023/06/01 08:36:30;;;;;;;12.02;6.43;;;;;;;;;;6310980;28;20076;-47
2023/06/01 08:39:31;;;;;;;11.68;5.68;;;;;;;;;;6306510;28;20032;-47
2023/06/01 08:42:44;;;;;;;9.90;5.55;;;;;;;;;;6311680;28;20028;-47
2023/06/01 08:45:47;;;;;;;11.98;5.47;;;;;;;;;;6308690;28;20365;-48
2023/06/01 08:48:54;;;;;;;8.50;5.18;;;;;;;;;;6309933;28;20040;-49
2023/06/01 08:51:56;;;;;;;11.77;4.97;;;;;;;;;;6305887;28;20132;-49
2023/06/01 08:55:01;;;;;;;9.27;4.63;;;;;;;;;;6308616;28;20143;-48
2023/06/01 08:58:03;;;;;;;10.65;4.68;;;;;;;;;;6308583;28;20052;-50
2023/06/01 09:01:04;;;;;;;13.02;4.88;;;;;;;;;;6306838;28;20058;-48
2023/06/01 09:04:05;;;;;;;10.18;4.70;;;;;;;;;;6308437;28;20126;-49
2023/06/01 09:07:06;;;;;;;11.27;5.40;;;;;;;;;;6309016;28;20510;-49
2023/06/01 09:10:07;;;;;;;11.30;5.07;;;;;;;;;;6308717;28;20061;-48
2023/06/01 09:13:08;;;;;;;13.27;5.07;;;;;;;;;;6306622;28;20466;-48
2023/06/01 09:16:09;;;;;;;9.00;4.13;;;;;;;;;;6308415;28;20046;-50
2023/06/01 09:19:10;;;;;;;10.00;4.45;;;;;;;;;;6308008;28;20116;-54
2023/06/01 09:22:12;;;;;;;8.93;4.30;;;;;;;;;;6305981;28;20039;-49
2023/06/01 09:25:14;;;;;;;9.90;4.40;;;;;;;;;;6308610;28;20173;-47
2023/06/01 09:28:14;;;;;;;11.13;4.30;;;;;;;;;;6307021;28;20056;-49
2023/06/01 09:31:35;;;;;;;10.33;4.37;;;;;;;;;;6308144;28;20148;-48
2023/06/01 09:34:44;;;;;;;8.88;4.43;;;;;;;;;;6307694;28;20060;-48
2023/06/01 09:37:58;;;;;;;14.18;5.43;;;;;;;;;;6318526;28;20066;-51
2023/06/01 09:41:00;;;;;;;10.88;4.75;;;;;;;;;;6309329;28;20089;-48
2023/06/01 09:44:02;;;;;;;9.68;4.90;;;;;;;;;;6315679;28;20052;-47
2023/06/01 09:47:12;;;;;;;11.57;5.30;;;;;;;;;;6314095;28;20127;-48
2023/06/01 09:50:36;;;;;;;8.77;5.18;;;;;;;;;;6311041;28;20304;-47
2023/06/01 09:53:41;;;;;;;8.70;4.78;;;;;;;;;;6307455;28;20410;-47
2023/06/01 09:56:45;;;;;;;11.50;5.25;;;;;;;;;;6309975;28;20047;-48
2023/06/01 09:59:46;;;;;;;16.52;5.60;;;;;;;;;;6309092;28;20079;-48
2023/06/01 10:02:47;;;;;;;13.93;5.30;;;;;;;;;;6311221;28;20084;-48
2023/06/01 10:05:49;;;;;;;11.83;5.60;;;;;;;;;;6305395;28;20402;-48
2023/06/01 10:08:51;;;;;;;11.93;5.22;;;;;;;;;;6305835;28;20036;-51
2023/06/01 10:11:54;;;;;;;10.82;4.70;;;;;;;;;;6315977;28;20047;-46
2023/06/01 10:14:55;;;;;;;8.90;5.10;;;;;;;;;;6314535;28;20131;-49
2023/06/01 10:17:56;;;;;;;9.48;5.43;;;;;;;;;;6313717;28;20048;-52
2023/06/01 10:20:57;;;;;;;11.43;5.05;;;;;;;;;;6314145;28;20477;-55
2023/06/01 10:23:58;;;;;;;11.93;4.90;;;;;;;;;;6316736;28;20081;-57
2023/06/01 10:27:20;;;;;;;14.97;5.20;;;;;;;;;;6315586;28;20051;-55
2023/06/01 10:30:21;;;;;;;12.20;5.47;;;;;;;;;;6314932;28;20074;-55
2023/06/01 10:33:55;;;;;;;9.90;5.30;;;;;;;;;;6315062;28;20042;-57
2023/06/01 10:36:55;;;;;;;12.70;4.82;;;;;;;;;;6313732;28;20495;-57
2023/06/01 10:40:23;;;;;;;11.70;5.20;;;;;;;;;;6312477;28;20064;-58
2023/06/01 10:43:42;;;;;;;11.60;5.43;;;;;;;;;;6312929;28;20100;-59
2023/06/01 10:46:43;;;;;;;11.60;5.20;;;;;;;;;;6279049;28;20054;-47
2023/06/01 10:49:46;;;;;;;10.90;4.67;;;;;;;;;;6284643;28;20041;-48
2023/06/01 10:52:47;;;;;;;9.68;5.40;;;;;;;;;;6283629;28;20079;-53
2023/06/01 10:56:18;;;;;;;10.73;5.20;;;;;;;;;;6280344;28;20044;-47
2023/06/01 10:59:18;;;;;;;10.68;5.13;;;;;;;;;;6280266;28;20040;-47
2023/06/01 11:02:19;;;;;;;11.50;4.90;;;;;;;;;;6278555;28;20048;-50
2023/06/01 11:05:48;;;;;;;12.38;5.22;;;;;;;;;;6278628;28;21736;-48
2023/06/01 11:08:48;;;;;;;10.88;5.07;;;;;;;;;;6282582;28;20048;-49
2023/06/01 11:11:50;;;;;;;12.40;5.63;;;;;;;;;;6280800;28;20098;-50
2023/06/01 11:15:11;;;;;;;9.32;4.90;;;;;;;;;;6280100;28;20084;-47
2023/06/01 11:18:58;;;;;;;10.63;4.95;;;;;;;;;;6279960;28;20086;-47
2023/06/01 11:22:04;;;;;;;8.75;4.60;;;;;;;;;;6277637;28;20055;-50
2023/06/01 11:25:07;;;;;;;7.57;4.82;;;;;;;;;;6277916;28;20044;-51
2023/06/01 11:28:08;;;;;;;12.48;5.30;;;;;;;;;;6279041;28;20045;-48
2023/06/01 11:31:10;;;;;;;7.80;4.83;;;;;;;;;;6278037;28;20040;-54
2023/06/01 11:34:12;;;;;;;10.82;4.65;;;;;;;;;;6277868;28;20048;-47
2023/06/01 11:37:18;;;;;;;11.40;4.80;;;;;;;;;;6280843;28;20052;-58
2023/06/01 11:40:20;;;;;;;10.65;4.70;;;;;;;;;;6278816;28;20059;-52
2023/06/01 11:43:29;;;;;;;10.43;5.03;;;;;;;;;;6279463;28;20502;-47
2023/06/01 11:46:30;;;;;;;13.57;5.25;;;;;;;;;;6278492;28;20059;-52
2023/06/01 11:49:39;;;;;;;12.48;4.75;;;;;;;;;;6279940;28;20044;-48
2023/06/01 11:52:40;;;;;;;10.15;4.75;;;;;;;;;;6280320;28;20536;-48
2023/06/01 11:55:54;;;;;;;9.13;4.93;;;;;;;;;;6276637;28;20037;-56
2023/06/01 11:59:00;;;;;;;18.48;5.57;;;;;;;;;;6279980;28;20040;-56
2023/06/01 12:02:00;;;;;;;10.32;5.22;;;;;;;;;;6277177;28;20049;-60
2023/06/01 12:05:10;;;;;;;7.73;4.97;;;;;;;;;;6275050;28;20056;-53
2023/06/01 12:08:31;;;;;;;20.15;5.18;;;;;;;;;;6280216;28;20474;-48
2023/06/01 12:11:32;;;;;;;10.77;4.97;;;;;;;;;;6279526;28;20898;-48
2023/06/01 12:14:33;;;;;;;9.73;5.22;;;;;;;;;;6278281;28;20048;-59
2023/06/01 12:17:53;;;;;;;11.17;4.87;;;;;;;;;;6277956;28;20056;-57
2023/06/01 12:20:54;;;;;;;10.65;5.25;;;;;;;;;;6279831;28;20082;-59
2023/06/01 12:23:54;;;;;;;9.53;5.10;;;;;;;;;;6277184;28;20044;-52
2023/06/01 12:26:59;;;;;;;12.17;5.53;;;;;;;;;;6274692;28;20052;-49
2023/06/01 12:30:00;;;;;;;12.50;5.38;;;;;;;;;;6276160;28;20303;-50
2023/06/01 12:33:04;;;;;;;;;;;;;;;;;;6278214;28;20049;-57
2023/06/01 12:36:06;;;;;;;12.05;5.45;;;;;;;;;;6281658;28;19929;-59
2023/06/01 12:39:07;;;;;;;8.48;5.43;;;;;;;;;;6281415;28;20119;-55
2023/06/01 12:42:09;;;;;;;9.47;4.70;;;;;;;;;;6283713;28;20040;-59
2023/06/01 12:45:10;;;;;;;8.05;5.00;;;;;;;;;;6278402;28;20386;-60
2023/06/01 12:48:30;;;;;;;12.83;5.97;;;;;;;;;;6283566;28;20052;-55
2023/06/01 12:51:32;;;;;;;8.45;5.50;;;;;;;;;;6282851;28;20052;-50
2023/06/01 12:54:32;;;;;;;10.77;4.88;;;;;;;;;;6282414;28;20048;-58
2023/06/01 12:57:34;;;;;;;13.63;5.23;;;;;;;;;;6282076;28;20517;-51
2023/06/01 13:00:35;;;;;;;9.18;5.10;;;;;;;;;;6280693;28;20055;-57
2023/06/01 13:03:36;;;;;;;10.55;4.80;;;;;;;;;;6284978;28;20568;-57
2023/06/01 13:06:38;;;;;;;7.77;4.60;;;;;;;;;;6279552;28;20075;-56
2023/06/01 13:09:38;;;;;;;11.38;4.63;;;;;;;;;;6283397;28;20055;-56
2023/06/01 13:12:40;;;;;;;9.17;4.97;;;;;;;;;;6282188;28;20131;-56
2023/06/01 13:15:45;;;;;;;11.25;4.53;;;;;;;;;;6280432;28;20059;-59
2023/06/01 13:18:47;;;;;;;12.77;5.13;;;;;;;;;;6279232;28;20044;-56
2023/06/01 13:21:48;;;;;;;8.43;4.93;;;;;;;;;;6279363;28;20054;-57
2023/06/01 13:24:48;;;;;;;12.77;4.23;;;;;;;;;;6280555;28;20835;-59
2023/06/01 13:27:50;;;;;;;10.80;5.00;;;;;;;;;;6284701;28;20036;-59
2023/06/01 13:30:51;;;;;;;11.52;4.78;;;;;;;;;;6283381;28;20304;-59
2023/06/01 13:33:51;;;;;;;11.70;4.80;;;;;;;;;;6282501;28;20059;-59
2023/06/01 13:36:52;;;;;;;8.33;4.50;;;;;;;;;;6283031;28;20515;-59
2023/06/01 13:39:53;;;;;;;11.23;5.10;;;;;;;;;;6284110;28;20044;-57
2023/06/01 13:42:53;;;;;;;7.27;4.53;;;;;;;;;;6285231;28;20056;-56
2023/06/01 13:45:54;;;;;;;9.35;4.63;;;;;;;;;;6281150;28;20056;-60
2023/06/01 13:48:55;;;;;;;10.13;4.20;;;;;;;;;;6283693;28;20537;-59
2023/06/01 13:51:56;;;;;;;9.05;4.47;;;;;;;;;;6281212;28;20101;-58
2023/06/01 13:54:57;;;;;;;7.87;4.27;;;;;;;;;;6279742;28;20059;-50
2023/06/01 13:57:58;;;;;;;12.35;4.50;;;;;;;;;;6279276;28;20056;-56
2023/06/01 14:00:58;;;;;;;9.35;4.28;;;;;;;;;;6282598;28;20124;-57
2023/06/01 14:03:59;;;;;;;9.55;4.63;;;;;;;;;;6282131;28;20140;-51
2023/06/01 14:07:00;;;;;;;9.80;4.97;;;;;;;;;;6278599;28;20179;-57
2023/06/01 14:10:00;;;;;;;9.80;4.57;;;;;;;;;;6282304;28;20147;-59
2023/06/01 14:13:01;;;;;;;7.10;3.90;;;;;;;;;;6283324;28;20048;-58
2023/06/01 14:16:02;;;;;;;6.47;3.78;;;;;;;;;;6279163;28;20486;-58
2023/06/01 14:19:04;;;;;;;11.30;4.63;;;;;;;;;;6277626;28;20202;-57
2023/06/01 14:22:06;;;;;;;8.70;4.25;;;;;;;;;;6280474;28;20072;-58
2023/06/01 14:25:07;;;;;;;10.23;4.40;;;;;;;;;;6278145;28;20578;-58
2023/06/01 14:28:07;;;;;;;;;;;;;;;;;;6281236;28;20056;-58
2023/06/01 14:31:08;;;;;;;8.23;4.40;;;;;;;;;;6281254;28;20071;-56
2023/06/01 14:34:09;;;;;;;8.27;4.55;;;;;;;;;;6277028;28;20052;-58
2023/06/01 14:37:11;;;;;;;9.17;4.37;;;;;;;;;;6281347;28;20060;-59
2023/06/01 14:40:12;;;;;;;10.32;4.38;;;;;;;;;;6281259;28;20127;-55
2023/06/01 14:43:12;;;;;;;7.05;4.03;;;;;;;;;;6281958;28;20068;-60
2023/06/01 14:46:13;;;;;;;9.57;4.10;;;;;;;;;;6263071;28;20139;-58
2023/06/01 14:49:14;;;;;;;6.87;3.97;;;;;;;;;;6282071;28;20585;-53
2023/06/01 14:52:15;;;;;;;13.18;3.97;;;;;;;;;;6281563;28;21321;-55
2023/06/01 14:55:16;;;;;;;6.93;4.07;;;;;;;;;;6277874;28;20044;-56
2023/06/01 14:58:17;;;;;;;9.93;4.13;;;;;;;;;;6279142;28;20044;-57
2023/06/01 15:01:18;;;;;;;7.20;3.93;;;;;;;;;;6279791;28;20387;-58
2023/06/01 15:04:18;;;;;;;8.77;3.78;;;;;;;;;;6276310;28;20095;-54
2023/06/01 15:07:19;;;;;;;10.33;3.50;;;;;;;;;;6281864;28;20132;-59
2023/06/01 15:10:20;;;;;;;8.38;3.80;;;;;;;;;;6279392;28;20050;-58
2023/06/01 15:13:20;;;;;;;9.20;3.97;;;;;;;;;;6281573;28;20399;-56
2023/06/01 15:16:21;;;;;;;10.07;4.15;;;;;;;;;;6277094;28;20068;-57
2023/06/01 15:19:22;;;;;;;9.20;4.07;;;;;;;;;;6279606;28;20048;-57
2023/06/01 15:22:23;;;;;;;8.10;3.85;;;;;;;;;;6282389;28;20057;-52
2023/06/01 15:25:23;;;;;;;8.70;4.10;;;;;;;;;;6278748;28;20565;-58
2023/06/01 15:28:24;;;;;;;11.68;4.40;;;;;;;;;;6281497;28;20041;-50
2023/06/01 15:31:25;;;;;;;7.70;4.50;;;;;;;;;;6280695;28;20044;-56
2023/06/01 15:34:26;;;;;;;8.73;4.28;;;;;;;;;;6275265;28;20044;-48
2023/06/01 15:37:26;;;;;;;9.73;4.33;;;;;;;;;;6275022;28;20059;-57
2023/06/01 15:40:27;;;;;;;8.73;4.60;;;;;;;;;;6277901;28;20045;-59
2023/06/01 15:43:28;;;;;;;7.90;4.13;;;;;;;;;;6276448;28;20131;-52
2023/06/01 15:46:29;;;;;;;7.18;3.92;;;;;;;;;;6276057;28;20086;-59
2023/06/01 15:49:30;;;;;;;8.13;4.07;;;;;;;;;;6275982;28;20407;-60
2023/06/01 15:52:31;;;;;;;;;;;;;;;;;;6278517;28;20056;-57
2023/06/01 15:55:31;;;;;;;9.03;4.13;;;;;;;;;;6274962;28;19935;-58
2023/06/01 15:58:32;;;;;;;10.10;4.28;;;;;;;;;;6279234;28;20137;-55
2023/06/01 16:01:33;;;;;;;7.83;4.13;;;;;;;;;;6284004;28;20186;-51
2023/06/01 16:04:33;;;;;;;9.18;4.18;;;;;;;;;;6279636;28;20053;-60
2023/06/01 16:07:34;;;;;;;7.17;4.37;;;;;;;;;;6280803;28;20045;-61
2023/06/01 16:10:35;;;;;;;8.50;4.97;;;;;;;;;;6281605;28;20059;-58
2023/06/01 16:13:35;;;;;;;8.17;4.30;;;;;;;;;;6279289;28;20052;-59
2023/06/01 16:16:36;;;;;;;8.15;4.40;;;;;;;;;;6279701;28;20140;-58
2023/06/01 16:19:40;;;;;;;12.77;4.75;;;;;;;;;;6284221;28;20053;-60
2023/06/01 16:22:40;;;;;;;8.38;4.53;;;;;;;;;;6285535;28;20872;-59
2023/06/01 16:25:41;;;;;;;7.83;4.27;;;;;;;;;;6284550;28;20074;-60
2023/06/01 16:28:42;;;;;;;11.38;5.60;;;;;;;;;;6283358;28;20042;-49
2023/06/01 16:31:43;;;;;;;9.07;5.22;;;;;;;;;;6283100;28;20058;-58
2023/06/01 16:34:44;;;;;;;10.15;5.18;;;;;;;;;;6281501;28;20563;-57
2023/06/01 16:37:45;;;;;;;7.40;4.67;;;;;;;;;;6279661;28;20075;-53
2023/06/01 16:40:46;;;;;;;12.27;5.03;;;;;;;;;;6285251;28;20044;-51
2023/06/01 16:43:46;;;;;;;10.50;4.90;;;;;;;;;;6281634;28;20059;-54
2023/06/01 16:46:47;;;;;;;14.93;5.57;;;;;;;;;;6281540;28;20529;-51
2023/06/01 16:49:48;;;;;;;8.53;4.90;;;;;;;;;;6281315;28;20086;-50
2023/06/01 16:52:49;;;;;;;17.90;4.95;;;;;;;;;;6286148;28;20062;-50
2023/06/01 16:55:49;;;;;;;7.50;5.00;;;;;;;;;;6284696;28;20052;-59
2023/06/01 16:58:50;;;;;;;8.23;4.60;;;;;;;;;;6287284;28;20074;-51
2023/06/01 17:01:51;;;;;;;6.77;4.77;;;;;;;;;;6282576;28;20532;-57
2023/06/01 17:04:52;;;;;;;8.98;4.85;;;;;;;;;;6284272;28;20419;-60
2023/06/01 17:07:53;;;;;;;12.95;5.20;;;;;;;;;;6282924;28;20055;-59
2023/06/01 17:10:54;;;;;;;12.32;5.72;;;;;;;;;;6282296;28;20053;-49
2023/06/01 17:13:55;;;;;;;11.17;5.40;;;;;;;;;;6279842;28;20454;-50
2023/06/01 17:16:56;;;;;;;11.82;5.53;;;;;;;;;;6281487;28;20311;-48
2023/06/01 17:19:57;;;;;;;12.93;5.75;;;;;;;;;;6278212;28;20155;-49
2023/06/01 17:22:57;;;;;;;10.65;5.72;;;;;;;;;;6279394;28;20088;-49
2023/06/01 17:25:58;;;;;;;13.73;6.55;;;;;;;;;;6276850;28;20048;-49
2023/06/01 17:28:59;;;;;;;11.30;5.80;;;;;;;;;;6283077;28;20064;-49
2023/06/01 17:32:01;;;;;;;13.70;5.20;;;;;;;;;;6284692;28;20044;-57
2023/06/01 17:35:03;;;;;;;10.75;5.28;;;;;;;;;;6283759;28;20049;-54
2023/06/01 17:38:04;;;;;;;10.18;5.40;;;;;;;;;;6282582;28;20601;-51
2023/06/01 17:41:06;;;;;;;10.23;5.10;;;;;;;;;;6285767;28;20076;-47
2023/06/01 17:44:06;;;;;;;10.30;5.35;;;;;;;;;;6283681;28;21388;-47
2023/06/01 17:47:07;;;;;;;10.32;5.85;;;;;;;;;;6283465;28;20052;-51
2023/06/01 17:50:08;;;;;;;10.20;5.10;;;;;;;;;;6284169;28;20052;-48
2023/06/01 17:53:10;;;;;;;9.90;5.63;;;;;;;;;;6285936;28;20044;-48
2023/06/01 17:56:11;;;;;;;9.57;5.07;;;;;;;;;;6281141;28;20427;-50
2023/06/01 17:59:13;;;;;;;11.75;5.78;;;;;;;;;;6283921;28;20164;-49